Time,TemperatureF,DewpointF,PressureIn,WindDirection,WindDirectionDegrees,WindSpeedMPH,WindSpeedGustMPH,Humidity,HourlyPrecipIn,Conditions,Clouds,dailyrainin,SoftwareType,DateUTC
2013-01-09 00:00:00,49.2,44.9,30.10,North,360,0.0,0.0,85,0.00,,,0.00,WeatherTracker,2013-01-09 08:00:00,
2013-01-09 00:05:00,49.2,44.9,30.10,NW,325,0.0,0.0,85,0.00,,,0.00,WeatherTracker,2013-01-09 08:05:00,
2013-01-09 00:10:00,49.4,44.8,30.10,NNW,342,0.0,0.0,84,0.00,,,0.00,WeatherTracker,2013-01-09 08:10:00,
2013-01-09 00:15:00,49.3,44.7,30.09,NNW,344,0.0,0.0,84,0.00,,,0.00,WeatherTracker,2013-01-09 08:15:00,
2013-01-09 00:20:00,49.2,44.9,30.09,North,360,0.0,0.0,85,0.00,,,0.00,WeatherTracker,2013-01-09 08:20:00,
2013-01-09 00:25:00,49.2,44.9,30.09,NNW,333,0.0,0.0,85,0.00,,,0.00,WeatherTracker,2013-01-09 08:25:00,
2013-01-09 00:30:00,49.2,44.9,30.08,NNW,327,0.0,0.0,85,0.00,,,0.00,WeatherTracker,2013-01-09 08:30:00,
2013-01-09 00:36:00,49.2,44.9,30.08,NNW,336,0.0,0.0,85,0.00,,,0.00,WeatherTracker,2013-01-09 08:36:00,
2013-01-09 00:41:00,49.2,44.9,30.08,North,360,0.0,0.0,85,0.00,,,0.00,WeatherTracker,2013-01-09 08:41:00,
2013-01-09 00:46:00,49.1,44.8,30.08,NNW,333,0.0,0.0,85,0.00,,,0.00,WeatherTracker,2013-01-09 08:46:00,
2013-01-09 00:51:00,49.2,44.9,30.08,NNW,342,0.0,0.0,85,0.00,,,0.00,WeatherTracker,2013-01-09 08:51:00,
2013-01-09 00:56:00,49.3,45.0,30.08,NNW,340,0.0,0.0,85,0.00,,,0.00,WeatherTracker,2013-01-09 08:56:00,
2013-01-09 01:01:00,49.5,45.2,30.08,NNW,330,0.0,0.0,85,0.00,,,0.00,WeatherTracker,2013-01-09 09:01:00,
2013-01-09 01:06:00,49.8,45.2,30.08,NW,318,0.0,0.0,84,0.00,,,0.00,WeatherTracker,2013-01-09 09:06:00,
2013-01-09 01:11:00,49.8,45.2,30.08,North,355,0.0,0.0,84,0.00,,,0.00,WeatherTracker,2013-01-09 09:11:00,
2013-01-09 01:16:00,49.7,45.1,30.08,NNE,28,0.0,0.0,84,0.00,,,0.00,WeatherTracker,2013-01-09 09:16:00,
2013-01-09 01:21:00,49.5,45.2,30.08,NNW,337,0.0,0.0,85,0.00,,,0.00,WeatherTracker,2013-01-09 09:21:00,
2013-01-09 01:26:00,49.6,45.3,30.08,North,355,0.0,0.0,85,0.00,,,0.00,WeatherTracker,2013-01-09 09:26:00,
2013-01-09 01:31:00,49.6,45.3,30.07,NNE,12,0.0,0.0,85,0.00,,,0.00,WeatherTracker,2013-01-09 09:31:00,
2013-01-09 01:36:00,49.5,45.2,30.07,NNW,334,0.0,0.0,85,0.00,,,0.00,WeatherTracker,2013-01-09 09:36:00,
2013-01-09 01:41:00,49.3,45.0,30.07,NNW,334,0.0,0.0,85,0.00,,,0.00,WeatherTracker,2013-01-09 09:41:00,
2013-01-09 01:47:00,49.3,45.0,30.08,NNW,339,0.0,0.0,85,0.00,,,0.00,WeatherTracker,2013-01-09 09:47:00,
2013-01-09 01:52:00,49.4,45.1,30.08,North,349,0.0,0.0,85,0.00,,,0.00,WeatherTracker,2013-01-09 09:52:00,
2013-01-09 01:57:00,49.5,45.2,30.08,NNE,15,0.0,0.0,85,0.00,,,0.00,WeatherTracker,2013-01-09 09:57:00,
2013-01-09 02:02:00,49.4,45.1,30.08,North,11,0.0,0.0,85,0.00,,,0.00,WeatherTracker,2013-01-09 10:02:00,
2013-01-09 02:07:00,48.9,44.9,30.08,North,355,0.0,0.0,86,0.00,,,0.00,WeatherTracker,2013-01-09 10:07:00,
2013-01-09 02:12:00,48.3,44.6,30.08,NE,36,0.0,0.0,87,0.00,,,0.00,WeatherTracker,2013-01-09 10:12:00,
2013-01-09 02:17:00,48.4,44.7,30.09,North,355,0.0,0.0,87,0.00,,,0.00,WeatherTracker,2013-01-09 10:17:00,
2013-01-09 02:22:00,48.9,44.9,30.09,North,360,0.0,0.0,86,0.00,,,0.00,WeatherTracker,2013-01-09 10:22:00,
2013-01-09 02:27:00,49.1,45.1,30.09,North,355,0.0,0.0,86,0.00,,,0.00,WeatherTracker,2013-01-09 10:27:00,
2013-01-09 02:32:00,49.0,45.0,30.07,NW,318,0.0,0.0,86,0.00,,,0.00,WeatherTracker,2013-01-09 10:32:00,
2013-01-09 02:37:00,49.0,44.7,30.07,NNW,340,0.0,0.0,85,0.00,,,0.00,WeatherTracker,2013-01-09 10:37:00,
2013-01-09 02:42:00,49.1,44.8,30.07,North,349,0.0,0.0,85,0.00,,,0.00,WeatherTracker,2013-01-09 10:42:00,
2013-01-09 02:47:00,49.1,44.8,30.07,North,355,0.0,0.0,85,0.00,,,0.00,WeatherTracker,2013-01-09 10:47:00,
2013-01-09 02:52:00,49.0,44.7,30.07,North,349,0.0,0.0,85,0.00,,,0.00,WeatherTracker,2013-01-09 10:52:00,
2013-01-09 02:57:00,48.7,44.4,30.07,NW,315,0.0,0.0,85,0.00,,,0.00,WeatherTracker,2013-01-09 10:57:00,
2013-01-09 03:02:00,48.6,44.3,30.07,NW,326,0.0,0.0,85,0.00,,,0.00,WeatherTracker,2013-01-09 11:02:00,
2013-01-09 03:07:00,48.5,44.2,30.07,NW,319,0.0,0.0,85,0.00,,,0.00,WeatherTracker,2013-01-09 11:07:00,
2013-01-09 03:12:00,48.5,44.2,30.07,NNW,329,0.0,0.0,85,0.00,,,0.00,WeatherTracker,2013-01-09 11:12:00,
2013-01-09 03:17:00,48.5,44.5,30.07,NW,323,0.0,0.0,86,0.00,,,0.00,WeatherTracker,2013-01-09 11:17:00,
2013-01-09 03:22:00,48.6,44.6,30.07,NNW,329,0.0,0.0,86,0.00,,,0.00,WeatherTracker,2013-01-09 11:22:00,
2013-01-09 08:06:00,48.7,46.8,30.05,North,355,0.0,0.0,93,0.00,,,0.00,WeatherTracker,2013-01-09 16:06:00,
2013-01-09 08:11:00,48.7,46.8,30.05,North,355,0.0,0.0,93,0.00,,,0.00,WeatherTracker,2013-01-09 16:11:00,
2013-01-09 08:17:00,48.3,46.4,30.06,North,355,0.0,0.0,93,0.00,,,0.00,WeatherTracker,2013-01-09 16:17:00,
2013-01-09 08:22:00,47.8,45.9,30.06,NNW,345,0.0,0.0,93,0.00,,,0.00,WeatherTracker,2013-01-09 16:22:00,
2013-01-09 08:27:00,47.5,45.6,30.06,NNW,345,0.0,0.0,93,0.00,,,0.00,WeatherTracker,2013-01-09 16:27:00,
2013-01-09 08:32:00,47.4,45.5,30.05,NNW,345,0.0,0.0,93,0.00,,,0.00,WeatherTracker,2013-01-09 16:32:00,
2013-01-09 08:37:00,47.3,45.4,30.05,NNW,345,0.0,0.0,93,0.00,,,0.00,WeatherTracker,2013-01-09 16:37:00,
2013-01-09 08:42:00,47.3,45.4,30.05,NNW,346,0.0,0.0,93,0.00,,,0.00,WeatherTracker,2013-01-09 16:42:00,
2013-01-09 08:47:00,47.2,45.3,30.05,NNW,346,0.0,0.0,93,0.00,,,0.00,WeatherTracker,2013-01-09 16:47:00,
2013-01-09 08:52:00,47.3,45.4,30.05,NNW,341,0.0,0.0,93,0.00,,,0.00,WeatherTracker,2013-01-09 16:52:00,
2013-01-09 08:57:00,47.4,45.5,30.05,NNW,333,0.0,0.0,93,0.00,,,0.00,WeatherTracker,2013-01-09 16:57:00,
2013-01-09 09:02:00,47.7,45.8,30.05,NNW,328,0.0,0.0,93,0.00,,,0.00,WeatherTracker,2013-01-09 17:02:00,
2013-01-09 09:07:00,47.9,45.7,30.05,NNW,327,0.0,0.0,92,0.00,,,0.00,WeatherTracker,2013-01-09 17:07:00,
2013-01-09 09:12:00,48.2,46.0,30.05,NNW,327,0.0,0.0,92,0.00,,,0.00,WeatherTracker,2013-01-09 17:12:00,
2013-01-09 09:17:00,48.5,46.3,30.05,NNW,328,0.0,0.0,92,0.00,,,0.00,WeatherTracker,2013-01-09 17:17:00,
2013-01-09 09:22:00,48.9,46.7,30.05,NNW,327,0.0,0.0,92,0.00,,,0.00,WeatherTracker,2013-01-09 17:22:00,
2013-01-09 09:28:00,49.2,46.7,30.05,NNW,327,0.0,0.0,91,0.00,,,0.00,WeatherTracker,2013-01-09 17:28:00,
2013-01-09 09:33:00,49.5,47.0,30.05,NNW,328,0.0,0.0,91,0.00,,,0.00,WeatherTracker,2013-01-09 17:33:00,
2013-01-09 09:38:00,49.8,47.0,30.05,NNW,327,0.0,0.0,90,0.00,,,0.00,WeatherTracker,2013-01-09 17:38:00,
2013-01-09 09:43:00,50.3,47.2,30.05,NNW,328,0.0,0.0,89,0.00,,,0.00,WeatherTracker,2013-01-09 17:43:00,
2013-01-09 09:48:00,50.5,47.1,30.05,NNW,328,0.0,0.0,88,0.00,,,0.00,WeatherTracker,2013-01-09 17:48:00,
2013-01-09 09:53:00,50.4,46.7,30.05,NNW,329,0.0,0.0,87,0.00,,,0.00,WeatherTracker,2013-01-09 17:53:00,
2013-01-09 09:58:00,50.8,47.4,30.05,NNW,329,0.0,0.0,88,0.00,,,0.00,WeatherTracker,2013-01-09 17:58:00,
2013-01-09 10:03:00,50.7,46.7,30.05,NNW,329,0.0,0.0,86,0.00,,,0.00,WeatherTracker,2013-01-09 18:03:00,
2013-01-09 10:08:00,50.2,46.2,30.05,NNW,329,0.0,0.0,86,0.00,,,0.00,WeatherTracker,2013-01-09 18:08:00,
2013-01-09 10:13:00,50.3,46.6,30.05,NNW,329,0.0,0.0,87,0.00,,,0.00,WeatherTracker,2013-01-09 18:13:00,
2013-01-09 10:18:00,50.2,46.5,30.05,NNW,329,0.0,0.0,87,0.00,,,0.00,WeatherTracker,2013-01-09 18:18:00,
2013-01-09 10:23:00,50.0,46.3,30.05,NNW,329,0.0,0.0,87,0.00,,,0.00,WeatherTracker,2013-01-09 18:23:00,
2013-01-09 10:28:00,49.7,46.3,30.05,NNW,329,0.0,0.0,88,0.00,,,0.00,WeatherTracker,2013-01-09 18:28:00,
2013-01-09 10:33:00,49.5,46.4,30.05,NNW,329,0.0,0.0,89,0.00,,,0.00,WeatherTracker,2013-01-09 18:33:00,
2013-01-09 10:38:00,49.5,46.7,30.05,SSE,152,0.0,0.0,90,0.00,,,0.00,WeatherTracker,2013-01-09 18:38:00,
2013-01-09 10:41:00,49.7,46.9,30.05,SSE,168,0.0,0.0,90,0.00,,,0.00,WeatherTracker,2013-01-09 18:41:00,
2013-01-09 10:43:00,49.8,47.3,30.05,SSE,152,0.0,0.0,91,0.00,,,0.00,WeatherTracker,2013-01-09 18:43:00,
2013-01-09 10:44:00,49.8,47.3,30.03,SSE,159,0.0,0.0,91,0.00,,,0.00,WeatherTracker,2013-01-09 18:44:00,
2013-01-09 10:45:00,49.7,47.2,30.03,South,169,0.0,0.0,91,0.00,,,0.00,WeatherTracker,2013-01-09 18:45:00,
2013-01-09 10:48:00,49.8,47.3,30.03,South,176,0.0,0.0,91,0.00,,,0.00,WeatherTracker,2013-01-09 18:48:00,
2013-01-09 10:49:00,49.8,47.3,30.03,South,175,0.0,0.0,91,0.00,,,0.00,WeatherTracker,2013-01-09 18:49:00,
2013-01-09 10:54:00,49.8,47.3,30.03,SSE,167,0.0,0.0,91,0.00,,,0.00,WeatherTracker,2013-01-09 18:54:00,
2013-01-09 11:00:00,49.8,47.3,30.02,SSE,166,0.0,0.0,91,0.00,,,0.00,WeatherTracker,2013-01-09 19:00:00,
2013-01-09 11:05:00,50.0,47.5,30.02,SSE,165,0.0,0.0,91,0.00,,,0.00,WeatherTracker,2013-01-09 19:05:00,
2013-01-09 11:10:00,50.4,47.9,30.02,SSE,167,0.0,0.0,91,0.00,,,0.00,WeatherTracker,2013-01-09 19:10:00,
2013-01-09 11:15:00,50.4,47.9,30.02,SSE,165,0.0,0.0,91,0.00,,,0.00,WeatherTracker,2013-01-09 19:15:00,
2013-01-09 11:20:00,50.6,48.1,30.02,SSE,167,0.0,0.0,91,0.00,,,0.00,WeatherTracker,2013-01-09 19:20:00,
2013-01-09 11:25:00,50.6,48.1,30.02,SSE,164,0.0,0.0,91,0.00,,,0.00,WeatherTracker,2013-01-09 19:25:00,
2013-01-09 11:30:00,50.4,47.9,30.01,SSE,160,0.0,0.0,91,0.00,,,0.00,WeatherTracker,2013-01-09 19:30:00,